Accueil
METAR-TAF:

METAR-TAF

Aéroports :

Aéroport international de Wattay

Vientiane, Laos

latitude: 17-57N, longitude: 102-34E, altitude: 171 m

Observation

Le bulletin a été fait il y a 5 heures et 52 minutes, à 13:30 UTC
Vent 2 kt de sud/sud-est
Température 25°C
Humidité 100%
Pression 1005 hPa
Visibilité: 4000 m
Nuages épars à une hauteur de 4000 ft
brume

METAR: VLVT 101330Z 16002KT 4000 BR SCT040 25/25 Q1005 NOSIG

Heure: 02:22 (19:22 UTC)

Prévision

Le bulletin a été fait il y a 2 heures et 22 minutes, à 17:00 UTC
Prévision valable du 10 à 18 UTC au 11 à 18 UTC
Vent 4 kt de sud-ouest
Visibilité: 4000 m
Quelques nuages à une hauteur de 1600 ft
Nuages épars à une hauteur de 4000 ft
Nuages épars à une hauteur de 10000 ft
brume

TAF: VLVT 101700Z 1018/1118 22004KT 4000 BR FEW016 SCT040 SCT100

Observations et prévisions météorologiques de plus de 4000 aéroports (messages METAR et TAF).

Les stations disponibles sont représentées par des disques jaunes et rouges sur la carte.

Passer la souris dessus pour voir le nom de la station.

Cliquer dessus pour voir les observations et prévisions météorologiques.

Pour changer de carte: cliquez sur les boutons verts avec une croix noire pour zoomer, sur le bouton vert avec un tiret pour effectuer un zoom arrière, ou sur les flèches vertes pour les cartes adjacentes.


METAR-TAF: